createdAt,value
2018-12-05T00:01:22.555Z,83.41
2018-12-05T00:03:51.662Z,83.23
2018-12-05T00:06:20.777Z,83.39
2018-12-05T00:08:51.572Z,83.41
2018-12-05T00:11:20.921Z,83.55
2018-12-05T00:13:49.872Z,83.64
2018-12-05T00:16:19.104Z,83.29
2018-12-05T00:18:48.096Z,83.43
2018-12-05T00:21:17.179Z,83.41
2018-12-05T00:23:46.297Z,82.75
2018-12-05T00:26:15.355Z,83.31
2018-12-05T00:28:44.413Z,82.73
2018-12-05T00:31:13.275Z,82.45
2018-12-05T00:33:42.403Z,82.98
2018-12-05T00:36:11.181Z,82.98
2018-12-05T00:38:40.255Z,83.98
2018-12-05T00:41:09.435Z,83.99
2018-12-05T00:43:38.645Z,84.44
2018-12-05T00:46:07.772Z,84.62
2018-12-05T00:48:36.861Z,84.76
2018-12-05T00:51:06.065Z,84.59
2018-12-05T00:53:35.458Z,84.27
2018-12-05T00:56:04.625Z,83.93
2018-12-05T00:58:33.573Z,84.29
2018-12-05T01:01:02.664Z,84.05
2018-12-05T01:03:31.779Z,83.59
2018-12-05T01:06:01.014Z,84.05
2018-12-05T01:08:30.184Z,84.20
2018-12-05T01:10:59.306Z,84.67
2018-12-05T01:13:28.567Z,84.54
2018-12-05T01:15:57.692Z,84.64
2018-12-05T01:18:26.603Z,84.01
2018-12-05T01:20:55.886Z,83.72
2018-12-05T01:23:25.090Z,83.70
2018-12-05T01:25:53.872Z,83.49
2018-12-05T01:28:22.989Z,82.91
2018-12-05T01:30:51.772Z,82.90
2018-12-05T01:33:21.041Z,82.89
2018-12-05T01:35:49.973Z,82.62
2018-12-05T01:38:18.951Z,82.78
2018-12-05T01:40:48.060Z,83.10
2018-12-05T01:43:16.841Z,82.79
2018-12-05T01:45:45.810Z,82.81
2018-12-05T01:48:14.693Z,82.91
2018-12-05T01:50:43.920Z,83.03
2018-12-05T01:53:13.160Z,82.90
2018-12-05T01:55:42.212Z,82.78
2018-12-05T01:58:11.276Z,83.07
2018-12-05T02:00:40.015Z,83.07
2018-12-05T02:03:09.088Z,82.92
2018-12-05T02:05:38.250Z,83.10
2018-12-05T02:08:07.321Z,83.05
2018-12-05T02:10:36.188Z,83.57
2018-12-05T02:13:05.591Z,83.49
2018-12-05T02:15:34.575Z,83.53
2018-12-05T02:18:03.332Z,82.95
2018-12-05T02:20:32.504Z,83.30
2018-12-05T02:23:01.605Z,83.18
2018-12-05T02:25:30.781Z,82.98
2018-12-05T02:27:59.924Z,83.34
2018-12-05T02:30:29.122Z,83.58
2018-12-05T02:32:58.282Z,83.79
2018-12-05T02:35:27.141Z,83.72
2018-12-05T02:37:56.140Z,83.65
2018-12-05T02:40:25.200Z,83.40
2018-12-05T02:42:54.713Z,83.91
2018-12-05T02:45:23.460Z,83.87
2018-12-05T02:47:52.997Z,83.93
2018-12-05T02:50:22.166Z,83.94
2018-12-05T02:52:51.337Z,84.12
2018-12-05T02:55:20.068Z,84.32
2018-12-05T02:57:49.213Z,84.88
2018-12-05T03:00:18.411Z,84.18
2018-12-05T03:02:47.512Z,84.11
2018-12-05T03:05:16.862Z,84.72
2018-12-05T03:07:46.106Z,84.36
2018-12-05T03:10:15.214Z,84.69
2018-12-05T03:12:44.513Z,84.37
2018-12-05T03:15:13.481Z,84.09
2018-12-05T03:17:42.391Z,84.36
2018-12-05T03:20:11.431Z,84.51
2018-12-05T03:22:40.542Z,85.38
2018-12-05T03:25:09.431Z,86.23
2018-12-05T03:27:38.230Z,86.89
2018-12-05T03:30:07.502Z,86.73
2018-12-05T03:32:36.417Z,86.88
2018-12-05T03:35:05.785Z,87.42
2018-12-05T03:37:34.940Z,86.85
2018-12-05T03:40:04.444Z,87.52
2018-12-05T03:42:33.548Z,87.66
2018-12-05T03:45:02.486Z,87.43
2018-12-05T03:47:31.472Z,85.72
2018-12-05T03:50:02.773Z,84.72
2018-12-05T03:52:32.440Z,84.05
2018-12-05T03:55:01.481Z,83.32
2018-12-05T03:57:30.466Z,82.67
2018-12-05T03:59:59.595Z,82.02
2018-12-05T04:02:28.548Z,81.25
2018-12-05T04:04:57.744Z,81.23
2018-12-05T04:07:26.607Z,80.72
2018-12-05T04:09:55.709Z,80.01
2018-12-05T04:12:24.921Z,80.21
2018-12-05T04:14:54.124Z,79.77
2018-12-05T04:17:23.263Z,79.79
2018-12-05T04:19:52.403Z,79.10
2018-12-05T04:22:21.508Z,78.14
2018-12-05T04:24:50.595Z,78.09
2018-12-05T04:27:19.565Z,77.85
2018-12-05T04:29:48.600Z,78.08
2018-12-05T04:32:17.634Z,77.75
2018-12-05T04:34:46.684Z,77.18
2018-12-05T04:37:15.723Z,77.21
2018-12-05T04:39:44.786Z,76.20
2018-12-05T04:42:13.589Z,76.92
2018-12-05T04:44:42.642Z,76.73
2018-12-05T04:47:12.378Z,76.61
2018-12-05T04:49:41.503Z,76.47
2018-12-05T04:52:10.700Z,76.35
2018-12-05T04:54:39.778Z,76.70
2018-12-05T04:57:08.825Z,75.88
2018-12-05T04:59:37.912Z,75.74
2018-12-05T05:02:06.841Z,75.77
2018-12-05T05:04:35.817Z,75.82
2018-12-05T05:07:04.996Z,75.57
2018-12-05T05:09:34.001Z,75.79
2018-12-05T05:12:03.197Z,76.10
2018-12-05T05:14:32.335Z,75.79
2018-12-05T05:17:01.449Z,75.87
2018-12-05T05:19:30.606Z,75.61
2018-12-05T05:21:59.732Z,75.09
2018-12-05T05:24:28.785Z,74.89
2018-12-05T05:26:57.853Z,75.31
2018-12-05T05:29:26.805Z,74.83
2018-12-05T05:31:56.056Z,74.88
2018-12-05T05:34:24.988Z,74.44
2018-12-05T05:36:53.989Z,74.70
2018-12-05T05:39:23.158Z,74.39
2018-12-05T05:41:52.444Z,74.18
2018-12-05T05:44:21.641Z,74.38
2018-12-05T05:46:50.692Z,73.76
2018-12-05T05:49:19.845Z,73.24
2018-12-05T05:51:48.898Z,73.62
2018-12-05T05:54:18.135Z,73.40
2018-12-05T05:56:47.323Z,73.27
2018-12-05T05:59:16.424Z,73.12
2018-12-05T06:01:45.217Z,72.78
2018-12-05T06:04:14.296Z,73.28
2018-12-05T06:06:43.014Z,72.44
2018-12-05T06:09:12.085Z,72.57
2018-12-05T06:11:41.374Z,72.50
2018-12-05T06:14:10.381Z,72.31
2018-12-05T06:16:39.667Z,72.04
2018-12-05T06:19:08.616Z,72.29
2018-12-05T06:21:37.683Z,73.05
2018-12-05T06:24:06.538Z,72.27
2018-12-05T06:26:35.295Z,72.32
2018-12-05T06:29:04.369Z,72.24
2018-12-05T06:31:33.499Z,72.02
2018-12-05T06:34:02.224Z,71.96
2018-12-05T06:36:31.283Z,72.26
2018-12-05T06:39:00.395Z,72.28
2018-12-05T06:41:29.547Z,72.38
2018-12-05T06:43:58.791Z,72.74
2018-12-05T06:46:27.880Z,72.01
2018-12-05T06:48:57.074Z,72.66
2018-12-05T06:51:26.289Z,73.28
2018-12-05T06:53:55.476Z,73.14
2018-12-05T06:56:24.200Z,72.82
2018-12-05T06:58:53.421Z,72.70
2018-12-05T07:01:22.457Z,72.89
2018-12-05T07:03:51.343Z,73.06
2018-12-05T07:06:20.435Z,72.82
2018-12-05T07:08:49.628Z,73.42
2018-12-05T07:11:18.432Z,73.56
2018-12-05T07:13:47.300Z,73.51
2018-12-05T07:16:16.404Z,73.07
2018-12-05T07:18:45.346Z,73.13
2018-12-05T07:21:14.423Z,73.64
2018-12-05T07:23:43.483Z,73.41
2018-12-05T07:26:12.611Z,73.08
2018-12-05T07:28:41.862Z,73.38
2018-12-05T07:31:10.838Z,73.70
2018-12-05T07:33:39.612Z,73.14
2018-12-05T07:36:08.852Z,72.08
2018-12-05T07:38:38.057Z,71.78
2018-12-05T07:41:07.057Z,71.98
2018-12-05T07:43:36.133Z,72.00
2018-12-05T07:46:05.062Z,72.40
2018-12-05T07:48:34.231Z,71.88
2018-12-05T07:51:03.038Z,71.95
2018-12-05T07:53:31.884Z,72.42
2018-12-05T07:56:00.977Z,72.35
2018-12-05T07:58:30.177Z,72.03
2018-12-05T08:00:59.327Z,72.56
2018-12-05T08:03:28.312Z,71.92
2018-12-05T08:05:57.581Z,72.79
2018-12-05T08:08:26.673Z,72.88
2018-12-05T08:10:55.873Z,72.70
2018-12-05T08:13:24.999Z,73.04
2018-12-05T08:15:54.175Z,72.80
2018-12-05T08:18:23.256Z,73.19
2018-12-05T08:20:52.396Z,73.61
2018-12-05T08:23:21.592Z,74.29
2018-12-05T08:25:50.850Z,74.88
2018-12-05T08:28:19.720Z,75.25
2018-12-05T08:30:48.525Z,74.84
2018-12-05T08:33:17.686Z,75.24
2018-12-05T08:35:46.629Z,75.51
2018-12-05T08:38:15.602Z,75.08
2018-12-05T08:40:44.839Z,75.22
2018-12-05T08:43:14.042Z,75.80
2018-12-05T08:45:43.288Z,75.69
2018-12-05T08:48:12.072Z,76.22
2018-12-05T08:50:41.171Z,76.35
2018-12-05T08:53:10.288Z,75.45
2018-12-05T08:55:39.632Z,74.43
2018-12-05T08:58:08.886Z,73.77
2018-12-05T09:00:38.017Z,74.01
2018-12-05T09:03:07.129Z,73.02
2018-12-05T09:05:36.063Z,72.68
2018-12-05T09:08:05.390Z,72.31
2018-12-05T09:10:34.364Z,71.80
2018-12-05T09:13:03.384Z,71.53
2018-12-05T09:15:32.575Z,72.38
2018-12-05T09:18:01.773Z,71.13
2018-12-05T09:20:30.921Z,69.85
2018-12-05T09:23:00.064Z,69.83
2018-12-05T09:25:29.315Z,69.53
2018-12-05T09:27:58.479Z,69.16
2018-12-05T09:30:27.330Z,69.70
2018-12-05T09:32:56.787Z,69.41
2018-12-05T09:35:26.199Z,69.12
2018-12-05T09:37:55.057Z,68.52
2018-12-05T09:40:24.147Z,68.95
2018-12-05T09:42:53.331Z,68.01
2018-12-05T09:45:22.575Z,67.56
2018-12-05T09:47:51.731Z,67.46
2018-12-05T09:50:20.780Z,66.98
2018-12-05T09:52:49.603Z,67.67
2018-12-05T09:55:18.732Z,67.26
2018-12-05T09:57:47.800Z,67.64
2018-12-05T10:00:16.996Z,67.45
2018-12-05T10:02:46.166Z,66.78
2018-12-05T10:05:15.527Z,67.09
2018-12-05T10:07:45.468Z,67.01
2018-12-05T10:10:14.445Z,66.43
2018-12-05T10:12:43.439Z,67.18
2018-12-05T10:15:12.600Z,66.81
2018-12-05T10:17:42.802Z,66.75
2018-12-05T10:20:12.113Z,66.74
2018-12-05T10:22:41.153Z,67.37
2018-12-05T10:25:10.476Z,67.56
2018-12-05T10:27:39.324Z,67.56
2018-12-05T10:30:09.677Z,67.04
2018-12-05T10:32:38.929Z,66.04
2018-12-05T10:35:08.112Z,66.38
2018-12-05T10:37:37.054Z,66.49
2018-12-05T10:40:06.556Z,66.38
2018-12-05T10:42:35.340Z,65.70
2018-12-05T10:45:04.440Z,65.65
2018-12-05T10:47:33.587Z,66.19
2018-12-05T10:50:02.733Z,65.55
2018-12-05T10:52:31.943Z,64.52
2018-12-05T10:55:00.723Z,63.63
2018-12-05T10:57:29.668Z,63.50
2018-12-05T10:59:58.898Z,63.96
2018-12-05T11:02:32.883Z,63.92
2018-12-05T11:05:07.020Z,62.82
2018-12-05T11:07:41.209Z,62.99
2018-12-05T11:11:18.342Z,62.51
2018-12-05T11:13:52.756Z,62.57
2018-12-05T11:16:26.991Z,62.39
2018-12-05T11:19:01.187Z,62.45
2018-12-05T11:21:35.310Z,62.21
2018-12-05T11:24:09.509Z,62.50
2018-12-05T11:26:40.302Z,61.45
2018-12-05T11:29:09.628Z,61.30
2018-12-05T11:31:38.797Z,61.46
2018-12-05T11:34:07.729Z,61.51
2018-12-05T11:36:36.973Z,60.42
2018-12-05T11:39:08.293Z,60.53
2018-12-05T11:41:37.477Z,60.55
2018-12-05T11:44:06.780Z,60.32
2018-12-05T11:46:36.077Z,59.92
2018-12-05T11:49:05.125Z,59.85
2018-12-05T11:51:34.328Z,59.46
2018-12-05T11:54:03.289Z,58.93
2018-12-05T11:56:32.449Z,58.70
2018-12-05T11:59:01.519Z,58.92
2018-12-05T12:01:30.690Z,58.23
2018-12-05T12:03:59.878Z,58.92
2018-12-05T12:06:29.001Z,59.46
2018-12-05T12:08:57.740Z,58.94
2018-12-05T12:11:26.685Z,58.80
2018-12-05T12:13:55.712Z,59.37
2018-12-05T12:16:24.853Z,58.63
2018-12-05T12:18:54.144Z,58.92
2018-12-05T12:21:23.393Z,58.67
2018-12-05T12:23:53.295Z,58.21
2018-12-05T12:26:22.418Z,58.34
2018-12-05T12:28:51.664Z,59.41
2018-12-05T12:31:20.784Z,59.51
2018-12-05T12:33:49.712Z,57.89
2018-12-05T12:36:18.685Z,58.32
2018-12-05T12:38:47.880Z,58.66
2018-12-05T12:41:16.999Z,57.53
2018-12-05T12:43:45.947Z,57.88
2018-12-05T12:46:15.104Z,58.23
2018-12-05T12:48:44.161Z,57.80
2018-12-05T12:51:13.343Z,58.05
2018-12-05T12:53:42.464Z,57.76
2018-12-05T12:56:11.203Z,58.13
2018-12-05T12:58:40.376Z,58.03
2018-12-05T13:01:09.568Z,57.49
2018-12-05T13:03:38.808Z,56.91
2018-12-05T13:06:08.008Z,58.34
2018-12-05T13:08:37.076Z,58.86
2018-12-05T13:11:06.396Z,59.92
2018-12-05T13:13:35.453Z,59.83
2018-12-05T13:16:04.827Z,58.72
2018-12-05T13:18:34.052Z,58.89
2018-12-05T13:21:03.293Z,59.67
2018-12-05T13:23:32.034Z,59.27
2018-12-05T13:26:01.467Z,59.86
2018-12-05T13:28:30.507Z,59.38
2018-12-05T13:30:59.644Z,59.83
2018-12-05T13:33:28.902Z,59.84
2018-12-05T13:35:57.937Z,59.56
2018-12-05T13:38:27.175Z,60.11
2018-12-05T13:40:56.359Z,60.45
2018-12-05T13:43:25.639Z,60.44
2018-12-05T13:45:54.970Z,60.89
2018-12-05T13:48:24.517Z,60.75
2018-12-05T13:50:53.772Z,60.90
2018-12-05T13:53:22.711Z,60.88
2018-12-05T13:55:51.791Z,59.93
2018-12-05T13:58:20.783Z,60.28
2018-12-05T14:00:49.607Z,60.78
2018-12-05T14:03:18.784Z,60.86
2018-12-05T14:05:47.723Z,59.37
2018-12-05T14:08:16.716Z,60.20
2018-12-05T14:10:45.573Z,60.47
2018-12-05T14:13:14.727Z,60.74
2018-12-05T14:15:43.867Z,61.09
2018-12-05T14:18:12.951Z,61.11
2018-12-05T14:20:42.217Z,61.49
2018-12-05T14:23:10.967Z,61.61
2018-12-05T14:25:40.137Z,61.45
2018-12-05T14:28:09.281Z,62.34
2018-12-05T14:30:38.244Z,61.72
2018-12-05T14:33:07.140Z,61.97
2018-12-05T14:35:36.295Z,61.55
2018-12-05T14:38:05.124Z,61.51
2018-12-05T14:40:34.239Z,62.31
2018-12-05T14:43:03.324Z,62.34
2018-12-05T14:45:32.423Z,62.45
2018-12-05T14:48:01.597Z,63.26
2018-12-05T14:50:30.746Z,63.45
2018-12-05T14:52:59.995Z,63.95
2018-12-05T14:55:28.924Z,63.50
2018-12-05T14:57:58.144Z,63.29
2018-12-05T15:00:27.300Z,63.15
2018-12-05T15:02:56.214Z,62.95
2018-12-05T15:05:25.373Z,63.38
2018-12-05T15:07:54.521Z,63.17
2018-12-05T15:10:23.412Z,63.98
2018-12-05T15:12:52.891Z,63.57
2018-12-05T15:15:22.125Z,63.75
2018-12-05T15:17:51.248Z,63.86
2018-12-05T15:20:20.406Z,64.01
2018-12-05T15:22:49.461Z,63.44
2018-12-05T15:25:18.753Z,64.21
2018-12-05T15:27:47.948Z,64.42
2018-12-05T15:30:16.970Z,63.69
2018-12-05T15:32:46.163Z,63.01
2018-12-05T15:35:15.289Z,62.97
2018-12-05T15:37:44.646Z,62.64
2018-12-05T15:40:13.843Z,62.75
2018-12-05T15:42:43.402Z,62.68
2018-12-05T15:45:12.857Z,62.19
2018-12-05T15:47:41.854Z,62.21
2018-12-05T15:50:11.023Z,62.36
2018-12-05T15:52:40.171Z,62.35
2018-12-05T15:55:09.243Z,62.45
2018-12-05T15:57:38.514Z,63.18
2018-12-05T16:00:09.062Z,62.54
2018-12-05T16:02:38.182Z,62.77
2018-12-05T16:05:07.978Z,62.38
2018-12-05T16:07:37.091Z,62.45
2018-12-05T16:10:07.485Z,62.76
2018-12-05T16:12:36.284Z,63.02
2018-12-05T16:15:05.760Z,62.31
2018-12-05T16:17:34.812Z,62.46
2018-12-05T16:20:03.876Z,62.68
2018-12-05T16:22:32.672Z,62.97
2018-12-05T16:25:01.739Z,63.05
2018-12-05T16:27:31.585Z,63.10
2018-12-05T16:30:00.540Z,63.20
2018-12-05T16:32:29.749Z,63.31
2018-12-05T16:34:58.990Z,63.12
2018-12-05T16:37:27.843Z,62.16
2018-12-05T16:39:56.741Z,62.07
2018-12-05T16:42:25.545Z,62.57
2018-12-05T16:44:54.489Z,62.59
2018-12-05T16:47:23.689Z,61.72
2018-12-05T16:49:52.880Z,62.69
2018-12-05T16:52:22.079Z,62.69
2018-12-05T16:54:51.496Z,62.32
2018-12-05T16:57:20.679Z,62.03
2018-12-05T16:59:49.800Z,62.79
2018-12-05T17:02:18.688Z,63.07
2018-12-05T17:04:47.822Z,63.39
2018-12-05T17:07:17.149Z,64.03
2018-12-05T17:09:46.320Z,64.54
2018-12-05T17:12:15.552Z,63.27
2018-12-05T17:14:44.556Z,63.56
2018-12-05T17:17:13.564Z,63.14
2018-12-05T17:19:42.649Z,62.67
2018-12-05T17:22:11.947Z,62.70
2018-12-05T17:24:41.040Z,62.24
2018-12-05T17:27:09.971Z,62.56
2018-12-05T17:29:38.979Z,62.54
2018-12-05T17:32:08.141Z,63.25
2018-12-05T17:34:37.060Z,62.87
2018-12-05T17:37:05.816Z,62.67
2018-12-05T17:39:34.830Z,62.35
2018-12-05T17:42:04.175Z,62.06
2018-12-05T17:44:33.267Z,62.54
2018-12-05T17:47:02.367Z,62.95
2018-12-05T17:49:31.468Z,62.87
2018-12-05T17:52:00.687Z,63.15
2018-12-05T17:54:29.545Z,63.16
2018-12-05T17:56:58.464Z,63.02
2018-12-05T17:59:27.363Z,63.09
2018-12-05T18:01:56.728Z,62.71
2018-12-05T18:04:25.841Z,62.17
2018-12-05T18:06:55.035Z,61.92
2018-12-05T18:09:24.085Z,62.24
2018-12-05T18:11:53.371Z,62.27
2018-12-05T18:14:22.618Z,62.18
2018-12-05T18:16:51.795Z,62.37
2018-12-05T18:19:20.915Z,61.94
2018-12-05T18:21:50.013Z,62.59
2018-12-05T18:24:19.256Z,61.90
2018-12-05T18:26:48.513Z,61.89
2018-12-05T18:29:18.107Z,62.06
2018-12-05T18:31:47.205Z,62.26
2018-12-05T18:34:16.363Z,61.68
2018-12-05T18:36:45.925Z,61.10
2018-12-05T18:39:15.260Z,61.34
2018-12-05T18:41:44.358Z,60.64
2018-12-05T18:44:13.469Z,59.94
2018-12-05T18:46:42.477Z,60.93
2018-12-05T18:49:11.960Z,60.99
2018-12-05T18:51:40.879Z,61.06
2018-12-05T18:54:10.606Z,60.76
2018-12-05T18:56:39.887Z,60.29
2018-12-05T18:59:09.096Z,60.19
2018-12-05T19:01:38.897Z,60.76
2018-12-05T19:04:07.828Z,60.88
2018-12-05T19:06:36.938Z,60.38
2018-12-05T19:09:08.070Z,60.21
2018-12-05T19:11:37.231Z,60.37
2018-12-05T19:14:13.094Z,60.64
2018-12-05T19:16:42.868Z,60.36
2018-12-05T19:19:12.485Z,60.28
2018-12-05T19:21:42.430Z,59.44
2018-12-05T19:24:12.731Z,59.90
2018-12-05T19:26:43.893Z,59.71
2018-12-05T19:29:13.294Z,59.29
2018-12-05T19:31:42.805Z,58.98
2018-12-05T19:34:13.308Z,59.79
2018-12-05T19:36:43.362Z,60.57
2018-12-05T19:39:12.564Z,59.85
2018-12-05T19:41:41.630Z,59.82
2018-12-05T19:44:10.897Z,59.26
2018-12-05T19:46:41.669Z,58.24
2018-12-05T19:49:10.956Z,59.24
2018-12-05T19:51:40.026Z,59.40
2018-12-05T19:54:09.164Z,59.62
2018-12-05T19:56:38.268Z,59.33
2018-12-05T19:59:07.401Z,59.31
2018-12-05T20:01:36.550Z,58.85
2018-12-05T20:04:05.875Z,58.67
2018-12-05T20:06:36.568Z,58.07
2018-12-05T20:09:08.641Z,59.20
2018-12-05T20:11:37.925Z,59.70
2018-12-05T20:14:10.047Z,58.72
2018-12-05T20:16:39.171Z,58.48
2018-12-05T20:19:08.878Z,58.94
2018-12-05T20:21:38.139Z,58.32
2018-12-05T20:24:07.178Z,58.78
2018-12-05T20:26:36.995Z,59.05
2018-12-05T20:29:05.934Z,59.25
2018-12-05T20:31:35.278Z,58.45
2018-12-05T20:34:04.367Z,58.30
2018-12-05T20:36:33.765Z,58.89
2018-12-05T20:39:03.218Z,57.77
2018-12-05T20:41:33.447Z,58.28
2018-12-05T20:44:02.754Z,58.45
2018-12-05T20:46:32.576Z,58.19
2018-12-05T20:49:01.657Z,57.49
2018-12-05T20:51:30.743Z,57.46
2018-12-05T20:53:59.949Z,58.00
2018-12-05T20:56:29.288Z,58.38
2018-12-05T20:58:58.480Z,58.33
2018-12-05T21:01:27.756Z,57.54
2018-12-05T21:03:56.958Z,57.42
2018-12-05T21:06:26.098Z,58.01
2018-12-05T21:08:55.000Z,57.99
2018-12-05T21:11:24.185Z,58.40
2018-12-05T21:13:53.221Z,57.76
2018-12-05T21:16:22.457Z,57.98
2018-12-05T21:18:51.543Z,57.05
2018-12-05T21:21:20.760Z,57.12
2018-12-05T21:23:49.831Z,58.32
2018-12-05T21:26:18.953Z,57.41
2018-12-05T21:28:48.139Z,58.18
2018-12-05T21:31:17.287Z,58.19
2018-12-05T21:33:46.628Z,57.93
2018-12-05T21:36:15.788Z,57.65
2018-12-05T21:38:45.251Z,58.30
2018-12-05T21:41:14.344Z,58.04
2018-12-05T21:43:43.389Z,58.20
2018-12-05T21:46:12.542Z,58.24
2018-12-05T21:48:41.524Z,58.06
2018-12-05T21:51:10.664Z,58.09
2018-12-05T21:53:39.831Z,57.83
2018-12-05T21:56:08.983Z,57.53
2018-12-05T21:58:37.968Z,57.88
2018-12-05T22:01:06.912Z,58.12
2018-12-05T22:03:35.933Z,58.09
2018-12-05T22:06:05.131Z,58.29
2018-12-05T22:08:33.991Z,58.56
2018-12-05T22:11:02.832Z,58.35
2018-12-05T22:13:32.046Z,58.03
2018-12-05T22:16:01.130Z,59.17
2018-12-05T22:18:30.291Z,58.64
2018-12-05T22:20:59.437Z,58.79
2018-12-05T22:23:28.580Z,58.22
2018-12-05T22:25:57.836Z,58.19
2018-12-05T22:28:26.976Z,59.12
2018-12-05T22:30:55.980Z,58.50
2018-12-05T22:33:24.775Z,58.73
2018-12-05T22:35:53.672Z,58.93
2018-12-05T22:38:22.856Z,58.76
2018-12-05T22:40:51.715Z,58.37
2018-12-05T22:43:20.779Z,58.86
2018-12-05T22:45:49.959Z,58.48
2018-12-05T22:48:19.161Z,58.04
2018-12-05T22:50:48.172Z,57.79
2018-12-05T22:53:17.359Z,58.10
2018-12-05T22:55:46.517Z,58.41
2018-12-05T22:58:15.652Z,58.69
2018-12-05T23:00:48.784Z,58.75
2018-12-05T23:03:17.962Z,59.52
2018-12-05T23:05:47.043Z,59.08
2018-12-05T23:08:16.151Z,59.48
2018-12-05T23:10:45.006Z,59.08
2018-12-05T23:13:14.003Z,58.38
2018-12-05T23:15:43.205Z,58.37
2018-12-05T23:18:12.422Z,58.39
2018-12-05T23:20:41.496Z,57.66
2018-12-05T23:23:10.708Z,58.45
2018-12-05T23:25:39.610Z,58.81
2018-12-05T23:28:08.706Z,58.84
2018-12-05T23:30:37.561Z,59.05
2018-12-05T23:33:06.683Z,59.86
2018-12-05T23:35:35.640Z,59.92
2018-12-05T23:38:04.707Z,60.31
2018-12-05T23:40:33.796Z,60.48
2018-12-05T23:43:03.039Z,61.76
2018-12-05T23:45:32.385Z,61.40
2018-12-05T23:48:01.636Z,60.86
2018-12-05T23:50:30.831Z,59.39
2018-12-05T23:52:59.840Z,59.78
2018-12-05T23:55:28.716Z,59.98
2018-12-05T23:57:57.764Z,60.39
